Cedar City, Utah Weather observations

Data are for observation ending at time listed.
 Day   Time    Ave.   Ave.  Ave.  Vector   Max.   Stn.    Total    Solar   Ave.  
  of    of     Air    Rel.  Wind   Wind    Wind   Baro.  Precip.   Rad.    Soil  
Year   Day     Temp.  Hum.  Speed  Dir.    Gust   Pres.                    Temp. 
2016   (MST)    F      %     mph   deg.    mph     mb.     in.     W/m2     F   
------------------------------------------------------------------------------
  39    2:50   18.8    83    0.3   128      1.5   836.7    0.00       0    33.4
  39    3:00   19.2    83    0.4   107      2.2   836.6    0.00       0    33.4
  39    3:10   19.0    82    0.1   138      1.8   836.6    0.00       0    33.4
  39    3:20   18.7    83    1.5   202      2.3   836.7    0.00       0    33.4
  39    3:30   18.6    82    0.9   160      1.9   836.7    0.00       0    33.4
  39    3:40   18.1    82    0.0   194      0.5   836.7    0.00       0    33.4
  39    3:50   17.8    83    0.6   112      2.0   836.7    0.00       0    33.4
  39    4:00   18.6    84    0.5   104      1.6   836.6    0.00       0    33.4
  39    4:10   18.7    83    0.0    97      0.1   836.6    0.00       0    33.4
  39    4:20   18.0    83    0.4   206      1.5   836.7    0.00       0    33.4
  39    4:30   17.6    84    0.3   199      1.2   836.8    0.00       0    33.4
  39    4:40   17.4    84    1.6   200      3.7   836.9    0.00       0    33.4
  39    4:50   17.5    83    0.7   154      2.0   836.9    0.00       0    33.4
  39    5:00   17.8    83    1.0   115      2.6   837.0    0.00       0    33.4
  39    5:10   18.9    82    1.4   113      2.6   837.0    0.00       0    33.4
  39    5:20   18.5    81    0.1   175      1.2   837.1    0.00       0    33.4
  39    5:30   18.2    82    0.4   150      1.9   837.2    0.00       0    33.4
  39    5:40   18.0    83    0.4   164      1.7   837.2    0.00       0    33.4
  39    5:50   18.1    83    0.5    99      1.7   837.3    0.00       0    33.4
  39    6:00   18.5    83    1.0   120      2.4   837.3    0.00       0    33.4
  39    6:10   18.4    83    0.2   126      1.3   837.3    0.00       0    33.4
  39    6:20   18.5    83    1.4   112      2.6   837.2    0.00       0    33.4
  39    6:30   18.1    82    0.1   127      0.8   837.2    0.00       0    33.4
  39    6:40   18.0    83    0.8   154      2.3   837.2    0.00       0    33.4
  39    6:50   17.7    83    0.8   202      2.0   837.1    0.00       0    33.3
  39    7:00   17.1    83    0.9   211      1.8   837.3    0.00       0    33.4
  39    7:10   16.9    83    2.1   199      3.1   837.4    0.00       0    33.3
  39    7:20   17.6    83    0.8   119      2.3   837.4    0.00       2    33.3
  39    7:30   17.9    83    0.3    81      1.4   837.5    0.00       3    33.4
  39    7:40   17.9    83    0.5   194      1.8   837.5    0.00       4    33.4
  39    7:50   18.0    83    0.4   116      2.0   837.4    0.00       9    33.3
  39    8:00   18.6    83    0.4   125      1.0   837.3    0.00      12    33.3
  39    8:10   18.8    82    0.0     0      0.0   837.3    0.00      13    33.3
  39    8:20   19.4    82    0.2   181      1.6   837.3    0.00      58    33.3
  39    8:30   22.5    77    0.3   181      1.3   837.3    0.00     143    33.4
  39    8:40   27.1    68    0.0   187      0.6   837.4    0.00     172    33.5
  39    8:50   30.8    58    0.1   180      0.9   837.6    0.00     201    33.5
  39    9:00   30.4    58    0.2   184      0.9   837.7    0.00     231    33.5
  39    9:10   31.4    56    0.6   289      2.9   837.8    0.00     265    33.5
  39    9:20   29.0    62    1.7   294      3.1   837.9    0.00     294    33.6
  39    9:30   28.8    64    1.4   279      3.6   837.9    0.00     322    33.6
  39    9:40   31.5    59    0.8   228      1.8   837.9    0.00     350    33.6
  39    9:50   32.9    55    0.7   208      2.2   838.0    0.00     378    33.6
  39   10:00   32.0    56    1.0   294      3.9   838.1    0.00     406    33.6
  39   10:10   31.8    57    1.1   301      3.4   838.1    0.00     437    33.6
  39   10:20   31.5    58    1.3   314      2.9   838.1    0.00     454    33.6
  39   10:30   32.1    58    1.7   300      4.2   838.1    0.00     477    33.6
  39   10:40   31.6    59    2.1   323      3.6   838.1    0.00     501    33.6
  39   10:50   31.9    58    2.4   294      5.2   838.2    0.00     525    33.6
  39   11:00   32.1    56    2.5   301      4.9   838.2    0.00     544    33.6
  39   11:10   32.0    56    3.2   294      4.5   838.0    0.00     565    33.6
  39   11:20   32.7    55    2.5   286      4.0   837.9    0.00     582    33.5
  39   11:30   33.2    52    2.6   295      4.9   837.8    0.00     598    33.6
  39   11:40   33.7    51    3.2   288      6.7   837.8    0.00     610    33.6
  39   11:50   33.7    50    2.9   291      5.6   837.7    0.00     622    33.5
  39   12:00   33.4    50    3.3   295      5.6   837.8    0.00     632    33.5
  39   12:10   34.8    48    2.5   292      5.2   837.7    0.00     638    33.5
  39   12:20   35.3    47    2.4   273      4.8   837.5    0.00     646    33.5
  39   12:30   35.7    46    2.2   296      5.0   837.3    0.00     653    33.5
  39   12:40   36.4    44    2.1   307      5.4   837.2    0.00     656    33.5
  39   12:50   36.0    45    3.1   275      5.4   837.1    0.00     656    33.5
  39   13:00   37.8    42    1.2   231      2.7   837.0    0.00     652    33.5
  39   13:10   37.2    44    2.8   300      5.8   837.0    0.00     653    33.5
  39   13:20   38.1    43    2.1   268      5.1   836.9    0.00     648    33.5
  39   13:30   38.0    43    2.6   287      5.5   836.9    0.00     646    33.5
  39   13:40   39.3    41    1.9   288      5.3   836.9    0.00     633    33.5
  39   13:50   39.4    41    2.4   228      4.7   836.6    0.00     618    33.6
  39   14:00   39.8    43    2.6   268      5.2   836.6    0.00     614    33.5
  39   14:10   38.7    46    2.2   330      5.0   836.5    0.00     602    33.5
  39   14:20   38.5    50    3.4   296      7.4   836.5    0.00     476    33.5
  39   14:30   38.6    51    4.3   281      7.3   836.4    0.00     393    33.5
  39   14:40   38.7    50    2.8   299      4.9   836.3    0.00     557    33.5
  39   14:50   39.0    49    3.2   313      5.9   836.3    0.00     534    33.5
  39   15:00   40.2    48    1.2   308      3.7   836.1    0.00     491    33.6
  39   15:10   40.8    46    2.7   284      5.2   835.9    0.00     493    33.6
  39   15:20   40.7    49    3.1   280      5.5   835.9    0.00     470    33.5
  39   15:30   40.2    50    3.4   288      5.9   835.8    0.00     416    33.5
  39   15:40   40.0    52    3.5   310      6.8   835.9    0.00     425    33.5
  39   15:50   39.7    54    4.0   290      6.4   835.9    0.00     396    33.5
  39   16:00   39.2    56    4.2   288      6.6   835.9    0.00     338    33.5
  39   16:10   39.2    56    3.5   278      6.8   835.9    0.00     333    33.5
  39   16:20   40.4    54    3.0   266      5.3   835.9    0.00     161    33.5
  39   16:30   40.4    53    1.9   276      5.2   835.9    0.00     248    33.5
  39   16:40   41.7    50    2.4   271      4.5   835.8    0.00     239    33.5
  39   16:50   41.0    52    2.4   270      3.7   835.9    0.00     215    33.5
  39   17:00   39.7    55    2.7   281      4.5   835.9    0.00     186    33.5
  39   17:10   38.6    58    2.4   273      3.7   835.9    0.00     117    33.5
  39   17:20   38.5    56    1.2   273      2.7   835.9    0.00      20    33.5
  39   17:30   38.6    54    0.4   275      1.2   835.9    0.00      21    33.5
  39   17:40   38.5    54    1.5   303      3.1   836.0    0.00      25    33.5
  39   17:50   37.5    61    2.4   292      4.0   835.9    0.00      17    33.5
  39   18:00   36.6    63    1.2   287      2.5   835.9    0.00       9    33.5
  39   18:10   36.0    64    0.1   288      0.9   835.9    0.00       4    33.5
  39   18:20   35.1    66    0.1   159      0.7   835.9    0.00       3    33.5
  39   18:30   34.8    68    0.1   126      0.9   835.9    0.00       1    33.5
  39   18:40   33.9    70    0.8   127      1.4   835.9    0.00       0    33.5
  39   18:50   33.3    72    0.4   128      1.5   836.0    0.00       0    33.5
  39   19:00   32.3    74    0.8   213      2.1   836.1    0.00       0    33.5
  39   19:10   31.3    74    1.3   163      2.6   836.0    0.00       0    33.5
  39   19:20   30.9    74    0.5   208      1.6   835.9    0.00       0    33.5
  39   19:30   30.3    75    0.3   176      0.9   835.9    0.00       0    33.5
  39   19:40   29.9    77    0.2   189      0.9   835.8    0.00       0    33.5
  39   19:50   29.6    77    0.5   191      1.5   835.8    0.00       0    33.5
  39   20:00   29.3    78    0.1   158      1.2   835.7    0.00       0    33.4
  39   20:10   29.4    78    1.4   103      2.1   835.7    0.00       0    33.4
  39   20:20   29.5    78    0.5    94      1.1   835.8    0.00       0    33.4
  39   20:30   28.6    79    1.3   224      2.6   835.9    0.00       0    33.4
  39   20:40   27.8    80    1.1   211      1.8   835.9    0.00       0    33.5
  39   20:50   27.5    79    0.0   188      0.7   835.9    0.00       0    33.5
  39   21:00   26.9    80    0.0   186      0.1   836.0    0.00       0    33.5
  39   21:10   26.9    82    0.2   144      1.4   836.2    0.00       0    33.5
  39   21:20   27.4    81    1.2   152      2.0   836.1    0.00       0    33.4
  39   21:30   27.2    81    0.4   139      1.2   836.0    0.00       0    33.4
  39   21:40   26.5    81    0.0     0      0.0   836.0    0.00       0    33.4
  39   21:50   25.8    83    0.2   200      1.2   836.0    0.00       0    33.4
  39   22:00   26.0    84    0.7   118      1.8   836.0    0.00       0    33.4
  39   22:10   26.1    83    0.0   120      0.8   835.8    0.00       0    33.5
  39   22:20   26.0    84    0.4   110      1.6   835.8    0.00       0    33.5
  39   22:30   25.6    84    0.1   189      0.7   835.8    0.00       0    33.5
  39   22:40   25.9    84    0.2    84      1.6   835.7    0.00       0    33.5
  39   22:50   25.3    83    1.0   240      3.5   835.9    0.00       0    33.5
  39   23:00   25.0    83    1.3   182      2.6   836.1    0.00       0    33.5
  39   23:10   25.1    82    1.2   122      2.7   836.1    0.00       0    33.5
  39   23:20   25.1    83    0.8   132      1.5   836.1    0.00       0    33.5
  39   23:30   25.7    82    1.2    86      2.9   836.0    0.00       0    33.5
  39   23:40   25.2    82    0.5   159      1.5   835.9    0.00       0    33.5
  39   23:50   24.3    83    1.5   203      2.2   835.9    0.00       0    33.4
  40    0:00   24.0    84    0.7   143      2.3   836.0    0.00       0    33.4
  40    0:10   25.0    83    1.1   110      3.1   836.0    0.00       0    33.4
  40    0:20   25.3    82    1.3    72      2.9   836.0    0.00       0    33.4
  40    0:30   25.1    82    1.1    70      2.0   836.0    0.00       0    33.4
  40    0:40   24.8    82    1.7    79      2.7   836.0    0.00       0    33.4
  40    0:50   24.6    81    0.8   110      3.2   836.0    0.00       0    33.4
  40    1:00   23.5    82    0.2   206      1.2   835.9    0.00       0    33.4
  40    1:10   22.9    84    0.0     0      0.0   835.8    0.00       0    33.4
  40    1:20   22.4    84    0.1   206      1.8   835.7    0.00       0    33.4
  40    1:30   22.1    85    0.7   189      2.0   835.7    0.00       0    33.4
  40    1:40   21.8    85    0.3   109      1.6   835.6    0.00       0    33.5
  40    1:50   22.3    86    0.9   120      2.2   835.5    0.00       0    33.4
  40    2:00   22.0    85    0.4   134      1.8   835.4    0.00       0    33.5
  40    2:10   21.8    86    0.0   134      1.2   835.4    0.00       0    33.5
  40    2:20   21.7    86    0.3   131      1.8   835.5    0.00       0    33.5
  40    2:30   22.9    86    1.7   134      2.9   835.5    0.00       0    33.5
  40    2:40   22.5    84    0.1   151      1.2   835.4    0.00       0    33.5

Return to Cedar City, Utah graphs page.


Western Regional Climate Center,wrcc@dri.edu